Time;durP1;ratioP1;P1;durP2;ratioP2;P2;SDS_P1;SDS_P2;PMS_P1;PMS_P2;Temp;Humidity;BMP_temperature;BMP_pressure;BME280_temperature;BME280_humidity;BME280_pressure;Samples;Min_cycle;Max_cycle;Signal;HPM_P1;HPM_P2
2021/12/29 00:00:14;;;;;;;2.10;1.57;;;;;;;5.52;100.00;98619.38;5089785;28;20175;-77
2021/12/29 00:02:40;;;;;;;1.93;1.20;;;;;;;5.51;100.00;98625.91;5091643;28;20181;-77
2021/12/29 00:05:07;;;;;;;4.07;1.90;;;;;;;5.48;100.00;98634.66;5088832;28;20322;-78
2021/12/29 00:07:32;;;;;;;2.13;1.87;;;;;;;5.44;100.00;98648.06;5091846;28;20670;-78
2021/12/29 00:10:00;;;;;;;1.83;1.73;;;;;;;5.38;100.00;98665.59;5089183;28;20178;-78
2021/12/29 00:12:26;;;;;;;2.20;2.07;;;;;;;5.30;100.00;98660.97;5091799;28;20203;-77
2021/12/29 00:14:55;;;;;;;0.63;0.63;;;;;;;5.19;100.00;98671.34;5088521;28;20190;-78
2021/12/29 00:17:21;;;;;;;0.83;0.57;;;;;;;5.12;100.00;98660.19;5088296;28;20205;-77
2021/12/29 00:19:47;;;;;;;1.53;1.33;;;;;;;5.16;100.00;98661.16;5089755;28;20197;-78
2021/12/29 00:22:13;;;;;;;6.63;1.83;;;;;;;5.22;100.00;98659.88;5090793;28;20286;-77
2021/12/29 00:24:38;;;;;;;1.63;1.50;;;;;;;5.27;100.00;98670.53;5090620;28;20169;-78
2021/12/29 00:27:05;;;;;;;0.60;0.60;;;;;;;5.22;100.00;98678.84;5090087;28;20260;-78
2021/12/29 00:29:31;;;;;;;0.30;0.30;;;;;;;5.20;100.00;98691.06;5091359;28;20201;-78
2021/12/29 00:31:56;;;;;;;2.03;0.77;;;;;;;5.22;100.00;98699.69;5089517;28;20323;-77
2021/12/29 00:34:22;;;;;;;1.73;1.23;;;;;;;5.19;100.00;98716.56;5091258;28;20617;-77
2021/12/29 00:36:47;;;;;;;4.97;1.73;;;;;;;5.12;100.00;98725.16;5087970;28;20205;-77
2021/12/29 00:39:12;;;;;;;0.63;0.63;;;;;;;5.10;100.00;98730.09;5091313;28;20606;-77
2021/12/29 00:41:38;;;;;;;0.40;0.40;;;;;;;5.07;100.00;98739.66;5089245;28;20680;-77
2021/12/29 00:44:04;;;;;;;2.57;2.33;;;;;;;5.08;100.00;98735.03;5088601;28;20177;-78
2021/12/29 00:46:29;;;;;;;2.23;1.40;;;;;;;5.14;100.00;98749.22;5088738;28;20536;-78
2021/12/29 00:48:56;;;;;;;11.67;3.50;;;;;;;5.15;100.00;98762.41;5083561;28;20186;-78
2021/12/29 00:51:21;;;;;;;2.27;1.57;;;;;;;5.14;100.00;98760.03;5092230;28;20253;-78
2021/12/29 00:53:47;;;;;;;2.23;2.10;;;;;;;5.14;100.00;98765.44;5092619;28;20592;-77
2021/12/29 00:56:12;;;;;;;2.03;1.67;;;;;;;5.16;100.00;98769.44;5092169;28;20635;-77
2021/12/29 00:58:37;;;;;;;3.70;3.30;;;;;;;5.20;100.00;98773.09;5087682;28;20202;-77
2021/12/29 01:01:03;;;;;;;3.60;3.17;;;;;;;5.23;100.00;98772.47;5070922;28;20198;-78
2021/12/29 01:03:29;;;;;;;2.17;2.03;;;;;;;5.36;100.00;98779.66;5086086;28;20215;-77
2021/12/29 01:05:54;;;;;;;7.43;5.03;;;;;;;5.45;100.00;98789.69;5091120;28;20381;-77
2021/12/29 01:08:20;;;;;;;5.50;4.50;;;;;;;5.46;100.00;98786.66;5090935;28;20209;-77
2021/12/29 01:10:46;;;;;;;4.70;4.27;;;;;;;5.45;100.00;98781.56;5090925;28;20177;-78
2021/12/29 01:13:18;;;;;;;5.07;3.83;;;;;;;5.48;100.00;98781.72;5090885;28;20173;-77
2021/12/29 01:15:57;;;;;;;6.80;5.23;;;;;;;5.50;100.00;98781.41;5090450;28;20256;-77
2021/12/29 01:18:22;;;;;;;6.23;4.17;;;;;;;5.53;100.00;98780.78;5090714;28;20205;-78
2021/12/29 01:20:48;;;;;;;11.77;4.50;;;;;;;5.55;100.00;98790.16;5090856;28;20174;-77
2021/12/29 01:23:13;;;;;;;6.37;4.97;;;;;;;5.56;100.00;98793.66;5090782;28;20182;-77
2021/12/29 01:25:38;;;;;;;4.03;3.63;;;;;;;5.54;100.00;98791.28;5090474;28;20648;-77
2021/12/29 01:28:04;;;;;;;9.50;6.20;;;;;;;5.61;100.00;98798.91;5090594;28;20227;-77
2021/12/29 01:30:29;;;;;;;5.63;3.87;;;;;;;5.62;100.00;98801.31;5090793;28;20378;-77
2021/12/29 01:32:55;;;;;;;5.13;4.63;;;;;;;5.65;100.00;98802.59;5090778;28;20177;-78
2021/12/29 01:35:21;;;;;;;9.67;3.93;;;;;;;5.65;100.00;98797.97;5089161;28;20264;-77
2021/12/29 01:37:46;;;;;;;7.10;5.00;;;;;;;5.67;100.00;98806.59;5090426;28;20292;-77
2021/12/29 01:40:17;;;;;;;4.77;4.33;;;;;;;5.73;100.00;98804.50;5090687;28;20173;-77
2021/12/29 01:42:43;;;;;;;2.33;1.80;;;;;;;5.77;100.00;98804.66;5088105;28;20600;-78
2021/12/29 01:45:10;;;;;;;2.63;2.43;;;;;;;5.79;100.00;98808.66;5090280;28;20208;-78
2021/12/29 01:47:35;;;;;;;8.13;6.03;;;;;;;5.84;100.00;98816.63;5079223;28;20189;-78
2021/12/29 01:50:02;;;;;;;3.30;3.00;;;;;;;5.90;100.00;98823.47;5080764;28;20185;-78
2021/12/29 01:52:37;;;;;;;4.67;4.27;;;;;;;5.89;100.00;98800.19;5090485;28;20188;-77
2021/12/29 01:55:05;;;;;;;6.27;5.67;;;;;;;5.87;100.00;98807.84;5090570;28;20548;-78
2021/12/29 01:57:30;;;;;;;6.70;5.30;;;;;;;5.83;100.00;98820.44;5090340;28;20730;-77
2021/12/29 01:59:56;;;;;;;5.67;4.43;;;;;;;5.79;100.00;98805.94;5090630;28;20205;-77
2021/12/29 02:02:21;;;;;;;3.53;3.30;;;;;;;5.84;100.00;98813.91;5090526;28;20170;-78
2021/12/29 02:04:47;;;;;;;8.00;5.93;;;;;;;5.83;100.00;98803.38;5090122;28;20590;-77
2021/12/29 02:07:13;;;;;;;7.70;6.10;;;;;;;5.83;100.00;98817.72;5090349;28;20267;-77
2021/12/29 02:09:40;;;;;;;7.60;6.90;;;;;;;5.82;100.00;98821.56;5090530;28;20268;-78
2021/12/29 02:12:06;;;;;;;6.60;6.00;;;;;;;5.83;100.00;98817.72;5090611;28;20177;-78
2021/12/29 02:14:33;;;;;;;5.33;4.83;;;;;;;5.85;100.00;98823.63;5090379;28;20183;-78
2021/12/29 02:16:59;;;;;;;7.23;5.90;;;;;;;5.86;100.00;98833.34;5090368;28;20193;-77
2021/12/29 02:19:25;;;;;;;11.83;5.43;;;;;;;5.88;100.00;98841.94;5090245;28;20171;-78
2021/12/29 02:22:08;;;;;;;13.97;6.83;;;;;;;5.87;100.00;98847.69;5090088;28;20186;-77
2021/12/29 02:24:38;;;;;;;5.97;4.60;;;;;;;5.89;100.00;98854.38;5090356;28;20174;-77
2021/12/29 02:27:05;;;;;;;8.23;7.00;;;;;;;5.89;100.00;98859.81;5091523;28;20251;-77
2021/12/29 02:29:32;;;;;;;4.27;3.70;;;;;;;5.93;100.00;98862.69;5093725;28;20167;-78
2021/12/29 02:31:57;;;;;;;2.63;2.43;;;;;;;5.94;100.00;98865.13;5093866;28;20200;-77
2021/12/29 02:34:22;;;;;;;6.60;6.00;;;;;;;5.93;100.00;98871.66;5093801;28;20166;-78
2021/12/29 02:36:48;;;;;;;5.30;4.83;;;;;;;5.91;100.00;98884.69;5093725;28;20168;-78
2021/12/29 02:39:19;;;;;;;5.87;5.13;;;;;;;5.93;100.00;98878.97;5093680;28;20266;-78
2021/12/29 02:41:51;;;;;;;2.30;2.20;;;;;;;5.92;100.00;98883.59;5093778;28;20204;-78
2021/12/29 02:44:25;;;;;;;3.67;3.07;;;;;;;5.94;100.00;98886.00;5092411;28;20174;-77
2021/12/29 02:46:55;;;;;;;5.53;4.80;;;;;;;5.94;100.00;98894.94;5093510;28;20248;-77
2021/12/29 02:49:21;;;;;;;3.53;2.30;;;;;;;5.96;100.00;98895.41;5093506;28;20176;-78
2021/12/29 02:51:47;;;;;;;2.63;2.43;;;;;;;5.93;100.00;98898.75;5092156;28;20180;-77
2021/12/29 02:54:13;;;;;;;3.33;3.03;;;;;;;5.96;100.00;98908.97;5093499;28;20170;-78
2021/12/29 02:56:39;;;;;;;4.77;2.80;;;;;;;5.99;100.00;98904.00;5092112;28;20285;-78
2021/12/29 02:59:05;;;;;;;5.87;1.10;;;;;;;6.01;100.00;98916.13;5093341;28;20198;-78
2021/12/29 03:01:30;;;;;;;5.07;3.27;;;;;;;6.01;100.00;98937.81;5093382;28;20177;-78
2021/12/29 03:03:58;;;;;;;5.17;4.67;;;;;;;6.00;100.00;98935.41;5093231;28;20202;-78
2021/12/29 03:06:24;;;;;;;6.80;3.43;;;;;;;5.99;100.00;98937.34;5093084;28;20174;-78
2021/12/29 03:08:50;;;;;;;5.37;4.83;;;;;;;5.97;100.00;98921.41;5091793;28;20180;-77
2021/12/29 03:11:16;;;;;;;5.37;4.83;;;;;;;5.99;100.00;98895.88;5093108;28;20174;-78
2021/12/29 03:13:41;;;;;;;5.57;5.07;;;;;;;5.96;100.00;98935.28;5093115;28;20235;-78
2021/12/29 03:16:07;;;;;;;3.07;2.80;;;;;;;5.94;100.00;98932.88;5091535;28;20214;-78
2021/12/29 03:18:33;;;;;;;4.97;4.43;;;;;;;5.91;100.00;98935.41;5092920;28;20212;-78
2021/12/29 03:20:58;;;;;;;8.80;6.43;;;;;;;5.88;100.00;98939.53;5092782;28;20181;-78
2021/12/29 03:23:24;;;;;;;5.27;4.47;;;;;;;5.82;100.00;98931.88;5092672;28;20256;-78
2021/12/29 03:25:49;;;;;;;7.50;6.00;;;;;;;5.79;100.00;98941.44;5092441;28;20177;-78
2021/12/29 03:28:20;;;;;;;2.43;2.23;;;;;;;5.78;100.00;98936.31;5092544;28;20205;-78
2021/12/29 03:30:51;;;;;;;2.47;2.27;;;;;;;5.77;100.00;98935.50;5092879;28;20221;-78
2021/12/29 03:33:17;;;;;;;6.10;5.07;;;;;;;5.72;100.00;98934.88;5092804;28;20158;-78
2021/12/29 03:35:49;;;;;;;14.47;7.67;;;;;;;5.72;100.00;98905.06;5092470;28;20180;-77
2021/12/29 03:38:20;;;;;;;9.73;8.10;;;;;;;5.70;100.00;98950.66;5089182;28;20222;-78
2021/12/29 03:40:46;;;;;;;8.03;5.30;;;;;;;5.70;100.00;98946.03;5084905;28;20202;-78
2021/12/29 03:43:13;;;;;;;6.93;6.10;;;;;;;5.69;100.00;98947.16;5084493;28;20269;-78
2021/12/29 03:45:41;;;;;;;8.83;7.80;;;;;;;5.67;100.00;98949.38;5079044;28;20226;-78
2021/12/29 03:48:09;;;;;;;9.60;7.73;;;;;;;5.67;100.00;98952.88;5092409;28;20541;-78
2021/12/29 03:50:35;;;;;;;8.27;7.47;;;;;;;5.67;100.00;98952.09;5092410;28;20177;-78
2021/12/29 03:53:01;;;;;;;7.90;6.83;;;;;;;5.68;100.00;98956.41;5092396;28;20205;-78
2021/12/29 03:55:26;;;;;;;6.63;5.27;;;;;;;5.67;100.00;98946.66;5092177;28;20231;-78
2021/12/29 03:57:51;;;;;;;8.10;6.83;;;;;;;5.68;100.00;98973.44;5092130;28;20216;-78
2021/12/29 04:00:20;;;;;;;7.90;5.53;;;;;;;5.68;100.00;98959.09;5090922;28;20231;-78
2021/12/29 04:02:46;;;;;;;6.97;5.67;;;;;;;5.69;100.00;98963.41;5091992;28;20170;-77
2021/12/29 04:05:15;;;;;;;13.73;5.00;;;;;;;5.71;100.00;98974.72;5091969;28;20173;-77
2021/12/29 04:07:40;;;;;;;6.20;5.50;;;;;;;5.71;100.00;98976.63;5091833;28;20203;-77
2021/12/29 04:10:08;;;;;;;4.90;4.50;;;;;;;5.75;100.00;98983.00;5091959;28;20174;-78
2021/12/29 04:12:33;;;;;;;6.53;5.23;;;;;;;5.72;100.00;98987.16;5091806;28;20209;-78
2021/12/29 04:14:59;;;;;;;4.80;3.20;;;;;;;5.75;100.00;98986.53;5091822;28;20223;-77
2021/12/29 04:17:30;;;;;;;2.97;2.73;;;;;;;5.75;100.00;98983.00;5091676;28;20595;-78
2021/12/29 04:22:40;;;;;;;5.53;4.23;;;;;;;5.79;100.00;98992.13;5091654;28;20247;-77
2021/12/29 04:25:06;;;;;;;4.40;3.87;;;;;;;5.79;100.00;98994.84;5091562;28;20253;-77
2021/12/29 04:27:32;;;;;;;5.27;3.70;;;;;;;5.80;100.00;99005.38;5091386;28;20250;-77
2021/12/29 04:29:57;;;;;;;4.57;2.90;;;;;;;5.82;100.00;98999.63;5091697;28;20261;-78
2021/12/29 04:32:23;;;;;;;3.73;3.30;;;;;;;5.80;100.00;99016.19;5092199;28;20174;-77
2021/12/29 04:34:48;;;;;;;1.90;1.60;;;;;;;5.83;100.00;99020.19;5091733;28;20646;-78
2021/12/29 04:37:14;;;;;;;3.50;3.00;;;;;;;5.83;100.00;99022.91;5091448;28;20173;-77
2021/12/29 04:39:39;;;;;;;5.40;3.70;;;;;;;5.82;100.00;99008.56;5091503;28;20170;-77
2021/12/29 04:42:04;;;;;;;3.53;3.07;;;;;;;5.83;100.00;99023.69;5091483;28;20307;-77
2021/12/29 04:44:30;;;;;;;11.60;2.80;;;;;;;5.85;100.00;99031.50;5091414;28;20248;-77
2021/12/29 04:46:57;;;;;;;7.57;4.53;;;;;;;5.84;100.00;99032.63;5091368;28;20212;-78
2021/12/29 04:49:27;;;;;;;1.17;1.13;;;;;;;5.84;100.00;99036.13;5091173;28;20204;-78
2021/12/29 04:52:02;;;;;;;3.80;3.40;;;;;;;5.80;100.00;99043.31;5091336;28;20177;-78
2021/12/29 04:54:29;;;;;;;0.70;0.67;;;;;;;5.84;100.00;99041.56;5091210;28;20564;-78
2021/12/29 04:56:55;;;;;;;3.03;2.77;;;;;;;5.87;100.00;99050.97;5091086;28;20173;-77
2021/12/29 04:59:21;;;;;;;3.30;3.00;;;;;;;5.91;100.00;99062.78;5091200;28;20232;-77
2021/12/29 05:01:47;;;;;;;5.90;3.73;;;;;;;5.89;100.00;99065.00;5091200;28;20401;-77
2021/12/29 05:04:19;;;;;;;4.73;4.00;;;;;;;5.88;100.00;99061.47;5091205;28;20204;-77
2021/12/29 05:09:29;;;;;;;9.48;6.65;;;;;;;5.89;100.00;99073.13;5090723;28;20442;-78
2021/12/29 05:11:54;;;;;;;6.60;5.33;;;;;;;5.88;100.00;99079.66;5091325;28;20177;-77
2021/12/29 05:14:19;;;;;;;3.77;2.97;;;;;;;5.84;100.00;99082.19;5091077;28;20185;-77
2021/12/29 05:16:45;;;;;;;2.40;1.87;;;;;;;5.83;100.00;99079.81;5090906;28;20179;-78
2021/12/29 05:19:10;;;;;;;1.37;1.27;;;;;;;5.82;100.00;99087.16;5091165;28;20201;-77
2021/12/29 05:21:35;;;;;;;5.07;3.90;;;;;;;5.82;100.00;99079.00;5089612;28;20186;-77
2021/12/29 05:24:00;;;;;;;4.73;4.20;;;;;;;5.80;100.00;99088.56;5091270;28;20673;-78
2021/12/29 05:26:26;;;;;;;3.03;2.57;;;;;;;5.81;100.00;99087.47;5090793;28;20315;-78
2021/12/29 05:28:51;;;;;;;5.30;3.60;;;;;;;5.79;100.00;99095.91;5090632;28;20210;-77
2021/12/29 05:31:17;;;;;;;2.90;2.70;;;;;;;5.75;100.00;99097.63;5090743;28;20182;-77
2021/12/29 05:33:43;;;;;;;3.87;3.10;;;;;;;5.71;100.00;99109.41;5090831;28;20541;-77
2021/12/29 05:36:08;;;;;;;6.93;4.07;;;;;;;5.67;100.00;99110.03;5090725;28;20173;-78
2021/12/29 05:38:33;;;;;;;2.63;2.07;;;;;;;5.64;100.00;99112.53;5089377;28;20209;-78
2021/12/29 05:40:59;;;;;;;1.20;1.13;;;;;;;5.64;100.00;99118.78;5090878;28;20196;-78
2021/12/29 05:43:25;;;;;;;3.37;2.80;;;;;;;5.63;100.00;99119.88;5089423;28;20176;-78
2021/12/29 05:45:51;;;;;;;3.60;3.13;;;;;;;5.62;100.00;99125.59;5090468;28;20178;-77
2021/12/29 05:48:17;;;;;;;2.63;2.13;;;;;;;5.61;100.00;99124.81;5091014;28;20190;-77
2021/12/29 05:50:42;;;;;;;1.63;1.50;;;;;;;5.62;100.00;99129.13;5090679;28;20215;-78
2021/12/29 05:53:08;;;;;;;1.83;1.73;;;;;;;5.63;100.00;99135.31;5090924;28;20170;-77
2021/12/29 05:55:33;;;;;;;1.60;1.50;;;;;;;5.66;100.00;99132.81;5090592;28;20166;-77
2021/12/29 05:57:59;;;;;;;3.77;2.50;;;;;;;5.67;100.00;99139.03;5090489;28;20193;-77
2021/12/29 06:00:26;;;;;;;6.20;2.70;;;;;;;5.68;100.00;99152.28;5089328;28;20648;-77
2021/12/29 06:02:52;;;;;;;1.73;1.43;;;;;;;5.68;100.00;99149.56;5092983;28;20170;-77
2021/12/29 06:05:18;;;;;;;1.93;1.83;;;;;;;5.68;100.00;99144.16;5094219;28;20542;-77
2021/12/29 06:07:43;;;;;;;1.33;1.23;;;;;;;5.69;100.00;99144.94;5094308;28;20174;-78
2021/12/29 06:10:09;;;;;;;1.10;0.90;;;;;;;5.77;100.00;99148.78;5094542;28;20176;-77
2021/12/29 06:12:36;;;;;;;0.83;0.47;;;;;;;5.78;100.00;99150.38;5094324;28;20174;-77
2021/12/29 06:15:03;;;;;;;3.07;2.37;;;;;;;5.79;100.00;99158.22;5093978;28;20165;-77
2021/12/29 06:17:28;;;;;;;2.33;1.80;;;;;;;5.79;100.00;99160.94;5093836;28;20350;-77
2021/12/29 06:19:54;;;;;;;1.63;1.53;;;;;;;5.78;100.00;99169.34;5094131;28;20641;-77
2021/12/29 06:22:19;;;;;;;2.23;1.97;;;;;;;5.78;100.00;99170.16;5093806;28;20181;-77
2021/12/29 06:24:51;;;;;;;3.73;2.10;;;;;;;5.77;100.00;99163.13;5094012;28;20589;-78
2021/12/29 06:27:17;;;;;;;1.17;1.13;;;;;;;5.81;100.00;99177.69;5093792;28;20177;-77
2021/12/29 06:29:42;;;;;;;1.80;1.13;;;;;;;5.82;100.00;99178.50;5093925;28;20190;-77
2021/12/29 06:32:07;;;;;;;1.90;1.30;;;;;;;5.84;100.00;99181.69;5093914;28;20190;-77
2021/12/29 06:34:34;;;;;;;1.30;1.20;;;;;;;5.86;100.00;99191.09;5093916;28;20177;-77
2021/12/29 06:37:03;;;;;;;0.80;0.80;;;;;;;5.84;100.00;99179.78;5093704;28;20166;-77
2021/12/29 06:39:29;;;;;;;1.47;0.83;;;;;;;5.83;100.00;99199.84;5093789;28;20264;-77
2021/12/29 06:41:54;;;;;;;1.47;1.17;;;;;;;5.82;100.00;99203.69;5093665;28;20315;-77
2021/12/29 06:44:19;;;;;;;3.27;2.43;;;;;;;5.81;100.00;99193.94;5092404;28;20182;-77
2021/12/29 06:46:45;;;;;;;2.67;2.03;;;;;;;5.81;100.00;99204.78;5093537;28;20537;-77
2021/12/29 06:49:10;;;;;;;1.43;1.30;;;;;;;5.83;100.00;99201.75;5093611;28;20231;-77
2021/12/29 06:51:36;;;;;;;1.83;1.57;;;;;;;5.83;100.00;99220.75;5093640;28;20170;-77
2021/12/29 06:54:01;;;;;;;1.10;1.00;;;;;;;5.84;100.00;99231.25;5093470;28;20170;-77
2021/12/29 06:56:26;;;;;;;0.70;0.70;;;;;;;5.85;100.00;99238.28;5093179;28;20191;-77
2021/12/29 06:58:52;;;;;;;4.70;0.90;;;;;;;5.86;100.00;99248.00;5093189;28;20668;-77
2021/12/29 07:01:17;;;;;;;1.00;0.80;;;;;;;5.87;100.00;99260.47;5093378;28;20248;-78
2021/12/29 07:03:43;;;;;;;0.43;0.43;;;;;;;5.89;100.00;99260.16;5093423;28;20252;-77
2021/12/29 07:06:08;;;;;;;1.43;1.33;;;;;;;5.92;100.00;99275.81;5091815;28;20514;-77
2021/12/29 07:08:34;;;;;;;3.30;2.37;;;;;;;5.92;100.00;99282.03;5093193;28;20188;-78
2021/12/29 07:11:00;;;;;;;0.93;0.87;;;;;;;5.94;100.00;99289.88;5093198;28;20174;-77
2021/12/29 07:13:25;;;;;;;1.37;1.27;;;;;;;5.95;100.00;99302.31;5092718;28;20654;-77
2021/12/29 07:15:50;;;;;;;1.20;1.10;;;;;;;5.96;100.00;99306.63;5093277;28;20174;-77
2021/12/29 07:18:16;;;;;;;2.40;2.20;;;;;;;5.97;100.00;99313.66;5092895;28;20247;-77
2021/12/29 07:20:44;;;;;;;3.57;2.17;;;;;;;5.97;100.00;99319.09;5092945;28;20178;-78
2021/12/29 07:23:09;;;;;;;1.83;1.73;;;;;;;5.97;100.00;99317.16;5090761;28;20544;-76
2021/12/29 07:25:35;;;;;;;2.00;1.57;;;;;;;5.97;100.00;99319.09;5091895;28;20190;-77
2021/12/29 07:28:00;;;;;;;1.80;1.63;;;;;;;5.95;100.00;99313.16;5086303;28;20650;-77
2021/12/29 07:30:26;;;;;;;3.33;2.93;;;;;;;5.94;100.00;99328.63;5080247;28;20520;-77
2021/12/29 07:32:51;;;;;;;2.37;1.80;;;;;;;5.93;100.00;99328.91;5090056;28;20178;-77
2021/12/29 07:35:18;;;;;;;2.63;2.13;;;;;;;5.92;100.00;99330.03;5092226;28;20170;-76
2021/12/29 07:37:43;;;;;;;3.20;2.80;;;;;;;5.92;100.00;99330.03;5088322;28;20586;-77
2021/12/29 07:40:09;;;;;;;3.00;2.43;;;;;;;5.91;100.00;99309.44;5088409;28;20423;-76
2021/12/29 07:42:38;;;;;;;2.77;2.03;;;;;;;5.90;100.00;99349.31;5090000;28;20653;-77
2021/12/29 07:45:07;;;;;;;13.03;2.53;;;;;;;5.91;100.00;99339.25;5092113;28;20218;-76
2021/12/29 07:47:34;;;;;;;2.17;2.03;;;;;;;5.90;100.00;99332.25;5078791;28;20174;-76
2021/12/29 07:49:59;;;;;;;0.50;0.50;;;;;;;5.92;100.00;99330.81;5089880;28;20181;-76
2021/12/29 07:52:24;;;;;;;0.40;0.40;;;;;;;5.94;100.00;99347.59;5095604;28;20255;-76
2021/12/29 07:54:50;;;;;;;1.10;1.00;;;;;;;5.96;100.00;99347.28;5088726;28;20178;-77
2021/12/29 07:57:15;;;;;;;2.00;1.37;;;;;;;6.00;100.00;99358.31;5089064;28;20173;-77
2021/12/29 07:59:41;;;;;;;1.00;0.93;;;;;;;6.00;100.00;99356.41;5089833;28;20211;-77
2021/12/29 08:02:16;;;;;;;1.47;1.27;;;;;;;6.02;100.00;99356.91;5090698;28;20221;-76
2021/12/29 08:04:41;;;;;;;1.20;0.93;;;;;;;6.05;100.00;99374.47;5080129;28;20178;-79
2021/12/29 08:07:06;;;;;;;2.60;2.40;;;;;;;6.05;100.00;99372.53;5091822;28;20541;-77
2021/12/29 08:09:32;;;;;;;4.83;1.90;;;;;;;6.06;100.00;99340.81;5081696;28;20265;-77
2021/12/29 08:11:57;;;;;;;0.30;0.30;;;;;;;6.06;100.00;99376.84;5090672;28;20193;-77
2021/12/29 08:14:22;;;;;;;3.33;1.30;;;;;;;6.01;100.00;99381.59;5090557;28;20287;-77
2021/12/29 08:16:48;;;;;;;2.90;0.83;;;;;;;6.01;100.00;99379.69;5080526;28;20659;-78
2021/12/29 08:19:14;;;;;;;0.87;0.73;;;;;;;6.05;100.00;99377.16;5091420;28;20214;-77
2021/12/29 08:21:40;;;;;;;0.80;0.60;;;;;;;6.08;100.00;99373.88;5088315;28;20190;-78
2021/12/29 08:24:05;;;;;;;1.80;1.30;;;;;;;6.13;100.00;99371.03;5089476;28;20182;-78
2021/12/29 08:26:30;;;;;;;0.47;0.30;;;;;;;6.14;100.00;99386.97;5089161;28;20231;-77
2021/12/29 08:28:58;;;;;;;1.10;1.00;;;;;;;6.16;100.00;99392.09;5084264;28;20649;-77
2021/12/29 08:31:25;;;;;;;0.87;0.87;;;;;;;6.19;100.00;99411.25;5091335;28;20186;-78
2021/12/29 08:33:51;;;;;;;8.80;0.93;;;;;;;6.20;100.00;99412.84;5091670;28;20224;-79
2021/12/29 08:36:17;;;;;;;1.67;1.40;;;;;;;6.24;100.00;99418.50;5088337;28;20253;-77
2021/12/29 08:38:42;;;;;;;0.70;0.70;;;;;;;6.23;100.00;99428.53;5091228;28;20217;-77
2021/12/29 08:41:11;;;;;;;0.50;0.33;;;;;;;6.22;100.00;99424.22;5091524;28;20180;-77
2021/12/29 08:43:36;;;;;;;0.63;0.63;;;;;;;6.27;100.00;99420.56;5091242;28;20231;-76
2021/12/29 08:46:02;;;;;;;2.13;0.60;;;;;;;6.26;100.00;99425.19;5088742;28;20181;-75
2021/12/29 08:48:27;;;;;;;1.70;0.60;;;;;;;6.30;100.00;99421.88;5091132;28;20177;-76
2021/12/29 08:50:57;;;;;;;1.63;1.43;;;;;;;6.31;100.00;99429.69;5091205;28;20200;-75
2021/12/29 08:53:22;;;;;;;0.30;0.30;;;;;;;6.34;100.00;99434.50;5088758;28;20514;-75
2021/12/29 08:55:49;;;;;;;0.63;0.63;;;;;;;6.37;100.00;99428.47;5090824;28;20203;-76
2021/12/29 08:58:15;;;;;;;1.00;0.70;;;;;;;6.41;100.00;99429.47;5090906;28;20200;-76
2021/12/29 09:00:42;;;;;;;0.10;0.10;;;;;;;6.45;100.00;99444.00;5091090;28;20649;-76
2021/12/29 09:03:07;;;;;;;0.50;0.43;;;;;;;6.47;100.00;99425.50;5089026;28;20212;-76
2021/12/29 09:05:33;;;;;;;1.10;0.93;;;;;;;6.50;100.00;99432.22;5090765;28;20185;-76
2021/12/29 09:07:58;;;;;;;1.03;0.97;;;;;;;6.53;100.00;99439.75;5089680;28;20181;-78
2021/12/29 09:10:24;;;;;;;0.53;0.53;;;;;;;6.55;100.00;99440.25;5088995;28;20174;-77
2021/12/29 09:12:51;;;;;;;0.30;0.30;;;;;;;6.54;100.00;99374.31;5086224;28;20178;-75
2021/12/29 09:15:19;;;;;;;0.63;0.63;;;;;;;6.55;100.00;99389.50;5080553;28;20578;-73
2021/12/29 09:17:45;;;;;;;0.80;0.70;;;;;;;6.57;100.00;99395.41;5090789;28;20215;-75
2021/12/29 09:20:15;;;;;;;1.70;1.27;;;;;;;6.60;100.00;99399.41;5083046;28;20202;-78
2021/12/29 09:22:41;;;;;;;1.77;1.60;;;;;;;6.62;100.00;99405.31;5083586;28;20605;-76
2021/12/29 09:25:07;;;;;;;0.53;0.20;;;;;;;6.64;100.00;99434.84;5087867;28;20177;-77
2021/12/29 09:27:32;;;;;;;1.90;1.80;;;;;;;6.67;100.00;99413.34;5088946;28;20173;-75
2021/12/29 09:29:58;;;;;;;1.80;1.70;;;;;;;6.68;100.00;99442.09;5090738;28;20222;-78
2021/12/29 09:32:23;;;;;;;3.00;2.47;;;;;;;6.72;100.00;99404.25;5089341;28;20204;-77
2021/12/29 09:34:50;;;;;;;2.20;1.43;;;;;;;6.73;100.00;99387.66;5090539;28;20261;-73
2021/12/29 09:37:15;;;;;;;1.07;1.00;;;;;;;6.73;100.00;99422.16;5094132;28;20166;-73
2021/12/29 09:39:41;;;;;;;1.87;1.67;;;;;;;6.74;100.00;99443.56;5094057;28;20588;-73
2021/12/29 09:42:06;;;;;;;3.50;2.60;;;;;;;6.77;100.00;99464.63;5092807;28;20258;-74
2021/12/29 09:44:31;;;;;;;1.93;1.60;;;;;;;6.79;100.00;99429.84;5094633;28;20261;-73
2021/12/29 09:46:57;;;;;;;4.57;3.63;;;;;;;6.82;100.00;99433.88;5094810;28;20255;-73
2021/12/29 09:49:23;;;;;;;1.23;1.13;;;;;;;6.85;100.00;99449.53;5087464;28;20799;-73
2021/12/29 09:51:50;;;;;;;2.77;1.87;;;;;;;6.86;100.00;99462.78;5088474;28;20174;-73
2021/12/29 09:54:16;;;;;;;3.63;3.23;;;;;;;6.93;100.00;99483.25;5094325;28;20174;-73
2021/12/29 09:56:41;;;;;;;2.70;2.27;;;;;;;6.94;100.00;99468.56;5093996;28;20553;-74
2021/12/29 09:59:06;;;;;;;2.47;2.27;;;;;;;6.97;100.00;99485.06;5094532;28;20205;-73
2021/12/29 10:01:32;;;;;;;4.17;2.20;;;;;;;6.99;100.00;99488.25;5094327;28;20644;-74
2021/12/29 10:03:57;;;;;;;2.00;1.80;;;;;;;6.99;100.00;99439.38;5094464;28;20226;-74
2021/12/29 10:06:23;;;;;;;1.73;1.63;;;;;;;7.02;100.00;99446.91;5094088;28;20553;-73
2021/12/29 10:08:49;;;;;;;3.27;2.37;;;;;;;7.05;100.00;99475.34;5090517;28;20659;-73
2021/12/29 10:11:28;;;;;;;3.00;2.47;;;;;;;7.10;100.00;99481.47;5093269;28;20184;-73
2021/12/29 10:13:57;;;;;;;2.13;1.93;;;;;;;7.11;100.00;99469.47;5087882;28;20664;-72
2021/12/29 10:16:25;;;;;;;2.07;1.83;;;;;;;7.14;100.00;99487.88;5093736;28;20174;-73
2021/12/29 10:18:58;;;;;;;2.23;1.67;;;;;;;7.19;100.00;99464.38;5088825;28;20209;-73
2021/12/29 10:21:26;;;;;;;1.93;1.40;;;;;;;7.22;100.00;99459.13;5093783;28;20181;-72
2021/12/29 10:23:54;;;;;;;1.97;1.73;;;;;;;7.23;100.00;99460.72;5094039;28;20261;-73
2021/12/29 10:26:32;;;;;;;1.33;1.23;;;;;;;7.25;100.00;99463.16;5093634;28;20644;-73
2021/12/29 10:29:02;;;;;;;0.90;0.90;;;;;;;7.26;100.00;99486.50;5093544;28;20235;-73
2021/12/29 10:31:37;;;;;;;0.57;0.47;;;;;;;7.27;100.00;99472.59;5092579;28;20174;-73
2021/12/29 10:34:05;;;;;;;0.73;0.67;;;;;;;7.27;100.00;99471.78;5093928;28;20177;-73
2021/12/29 10:36:36;;;;;;;1.10;0.77;;;;;;;7.27;100.00;99467.16;5093794;28;20231;-73
2021/12/29 10:39:07;;;;;;;0.20;0.20;;;;;;;7.31;100.00;99480.91;5093689;28;20202;-73
2021/12/29 10:41:44;;;;;;;1.07;0.87;;;;;;;7.32;100.00;99464.28;5093706;28;20544;-73
2021/12/29 10:44:10;;;;;;;0.53;0.53;;;;;;;7.34;100.00;99472.13;5093672;28;20655;-73
2021/12/29 10:46:35;;;;;;;0.37;0.37;;;;;;;7.36;100.00;99461.72;5093368;28;20172;-73
2021/12/29 10:49:04;;;;;;;0.40;0.30;;;;;;;7.37;100.00;99532.06;5092932;28;20258;-73
2021/12/29 10:51:34;;;;;;;0.90;0.60;;;;;;;7.40;100.00;99533.38;5093591;28;20253;-73
2021/12/29 10:54:14;;;;;;;0.70;0.30;;;;;;;7.41;100.00;99437.16;5092152;28;20584;-73
2021/12/29 10:56:55;;;;;;;1.00;1.00;;;;;;;7.41;100.00;99521.41;5093467;28;20158;-73
2021/12/29 10:59:24;;;;;;;0.60;0.60;;;;;;;7.42;100.00;99436.84;5093405;28;20193;-73
2021/12/29 11:01:50;;;;;;;0.53;0.37;;;;;;;7.44;100.00;99469.94;5093297;28;20174;-73
2021/12/29 11:04:17;;;;;;;0.20;0.20;;;;;;;7.46;100.00;99458.75;5093196;28;20638;-73
2021/12/29 11:06:46;;;;;;;0.63;0.50;;;;;;;7.46;100.00;99491.34;5093744;28;20580;-73
2021/12/29 11:09:15;;;;;;;0.23;0.23;;;;;;;7.48;100.00;99451.06;5093285;28;20178;-73
2021/12/29 11:11:45;;;;;;;0.80;0.80;;;;;;;7.50;100.00;99456.19;5093205;28;20593;-73
2021/12/29 11:14:31;;;;;;;0.70;0.70;;;;;;;7.53;100.00;99488.19;5093114;28;20671;-73
2021/12/29 11:17:09;;;;;;;1.00;0.90;;;;;;;7.52;100.00;99446.59;5093043;28;20170;-73
2021/12/29 11:19:37;;;;;;;0.73;0.73;;;;;;;7.55;100.00;99546.56;5092974;28;20298;-73
2021/12/29 11:22:19;;;;;;;1.53;1.07;;;;;;;7.58;100.00;99439.91;5092656;28;20190;-73
2021/12/29 11:24:53;;;;;;;0.80;0.80;;;;;;;7.62;100.00;99484.38;5092519;28;20459;-73
2021/12/29 11:27:19;;;;;;;1.20;1.10;;;;;;;7.65;100.00;99499.25;5091963;28;20177;-73
2021/12/29 11:30:11;;;;;;;1.30;1.20;;;;;;;7.72;100.00;99469.69;5092650;28;20257;-73
2021/12/29 11:32:44;;;;;;;0.90;0.90;;;;;;;7.73;100.00;99528.38;5091092;28;20549;-73
2021/12/29 11:35:20;;;;;;;1.03;1.03;;;;;;;7.73;100.00;99556.38;5089392;28;20185;-73
2021/12/29 11:37:51;;;;;;;2.10;1.90;;;;;;;7.74;100.00;99546.31;5084525;28;20240;-73